sensor_id;sensor_type;location;lat;lon;timestamp;P1;durP1;ratioP1;P2;durP2;ratioP2
40339;SDS011;26044;50.864;20.658;2023-05-29T00:00:04;15.38;;;3.85;;
40339;SDS011;26044;50.864;20.658;2023-05-29T00:02:35;10.65;;;3.80;;
40339;SDS011;26044;50.864;20.658;2023-05-29T00:05:02;10.65;;;4.18;;
40339;SDS011;26044;50.864;20.658;2023-05-29T00:07:33;13.18;;;4.28;;
40339;SDS011;26044;50.864;20.658;2023-05-29T00:09:59;12.57;;;4.10;;
40339;SDS011;26044;50.864;20.658;2023-05-29T00:12:27;19.45;;;4.15;;
40339;SDS011;26044;50.864;20.658;2023-05-29T00:14:53;13.35;;;4.20;;
40339;SDS011;26044;50.864;20.658;2023-05-29T00:17:22;14.98;;;4.10;;
40339;SDS011;26044;50.864;20.658;2023-05-29T00:19:50;15.73;;;4.60;;
40339;SDS011;26044;50.864;20.658;2023-05-29T00:22:16;14.70;;;4.40;;
40339;SDS011;26044;50.864;20.658;2023-05-29T00:24:43;14.57;;;4.05;;
40339;SDS011;26044;50.864;20.658;2023-05-29T00:27:11;14.52;;;4.70;;
40339;SDS011;26044;50.864;20.658;2023-05-29T00:29:38;18.17;;;5.50;;
40339;SDS011;26044;50.864;20.658;2023-05-29T00:32:06;14.30;;;4.50;;
40339;SDS011;26044;50.864;20.658;2023-05-29T00:34:33;16.92;;;4.93;;
40339;SDS011;26044;50.864;20.658;2023-05-29T00:37:00;15.40;;;4.88;;
40339;SDS011;26044;50.864;20.658;2023-05-29T00:39:28;15.13;;;4.95;;
40339;SDS011;26044;50.864;20.658;2023-05-29T00:41:55;16.50;;;4.90;;
40339;SDS011;26044;50.864;20.658;2023-05-29T00:44:24;14.55;;;4.55;;
40339;SDS011;26044;50.864;20.658;2023-05-29T00:46:51;15.63;;;5.20;;
40339;SDS011;26044;50.864;20.658;2023-05-29T00:49:20;16.35;;;5.45;;
40339;SDS011;26044;50.864;20.658;2023-05-29T00:51:49;14.50;;;4.97;;
40339;SDS011;26044;50.864;20.658;2023-05-29T00:54:21;15.98;;;5.13;;
40339;SDS011;26044;50.864;20.658;2023-05-29T00:56:52;15.80;;;4.88;;
40339;SDS011;26044;50.864;20.658;2023-05-29T00:59:20;16.77;;;5.43;;
40339;SDS011;26044;50.864;20.658;2023-05-29T01:01:49;14.95;;;5.32;;
40339;SDS011;26044;50.864;20.658;2023-05-29T01:04:18;19.70;;;6.05;;
40339;SDS011;26044;50.864;20.658;2023-05-29T01:06:47;15.05;;;4.68;;
40339;SDS011;26044;50.864;20.658;2023-05-29T01:09:15;18.23;;;5.40;;
40339;SDS011;26044;50.864;20.658;2023-05-29T01:17:32;18.75;;;5.20;;
40339;SDS011;26044;50.864;20.658;2023-05-29T01:20:12;16.20;;;5.30;;
40339;SDS011;26044;50.864;20.658;2023-05-29T01:28:50;16.25;;;5.88;;
40339;SDS011;26044;50.864;20.658;2023-05-29T01:31:23;11.20;;;4.18;;
40339;SDS011;26044;50.864;20.658;2023-05-29T01:33:52;14.27;;;4.40;;
40339;SDS011;26044;50.864;20.658;2023-05-29T01:36:28;16.10;;;4.63;;
40339;SDS011;26044;50.864;20.658;2023-05-29T01:38:56;18.60;;;4.90;;
40339;SDS011;26044;50.864;20.658;2023-05-29T01:41:25;13.95;;;4.65;;
40339;SDS011;26044;50.864;20.658;2023-05-29T01:43:52;10.32;;;3.80;;
40339;SDS011;26044;50.864;20.658;2023-05-29T01:46:20;18.45;;;4.95;;
40339;SDS011;26044;50.864;20.658;2023-05-29T01:48:49;15.63;;;5.05;;
40339;SDS011;26044;50.864;20.658;2023-05-29T01:51:16;12.02;;;4.57;;
40339;SDS011;26044;50.864;20.658;2023-05-29T01:53:43;14.80;;;4.32;;
40339;SDS011;26044;50.864;20.658;2023-05-29T01:56:10;14.30;;;4.60;;
40339;SDS011;26044;50.864;20.658;2023-05-29T01:58:38;14.48;;;4.40;;
40339;SDS011;26044;50.864;20.658;2023-05-29T02:01:06;13.52;;;4.28;;
40339;SDS011;26044;50.864;20.658;2023-05-29T02:03:33;17.88;;;4.40;;
40339;SDS011;26044;50.864;20.658;2023-05-29T02:06:01;13.77;;;4.30;;
40339;SDS011;26044;50.864;20.658;2023-05-29T02:08:28;19.33;;;4.93;;
40339;SDS011;26044;50.864;20.658;2023-05-29T02:10:55;14.65;;;5.00;;
40339;SDS011;26044;50.864;20.658;2023-05-29T02:13:22;21.05;;;5.28;;
40339;SDS011;26044;50.864;20.658;2023-05-29T02:15:50;14.32;;;4.95;;
40339;SDS011;26044;50.864;20.658;2023-05-29T02:18:17;18.20;;;4.53;;
40339;SDS011;26044;50.864;20.658;2023-05-29T02:20:45;12.18;;;4.63;;
40339;SDS011;26044;50.864;20.658;2023-05-29T02:23:13;15.43;;;4.30;;
40339;SDS011;26044;50.864;20.658;2023-05-29T02:25:48;15.60;;;4.88;;
40339;SDS011;26044;50.864;20.658;2023-05-29T02:28:14;12.07;;;4.28;;
40339;SDS011;26044;50.864;20.658;2023-05-29T02:30:41;10.60;;;3.85;;
40339;SDS011;26044;50.864;20.658;2023-05-29T02:33:08;13.20;;;4.10;;
40339;SDS011;26044;50.864;20.658;2023-05-29T02:35:36;11.25;;;4.40;;
40339;SDS011;26044;50.864;20.658;2023-05-29T02:38:04;13.60;;;4.03;;
40339;SDS011;26044;50.864;20.658;2023-05-29T02:40:32;16.20;;;4.30;;
40339;SDS011;26044;50.864;20.658;2023-05-29T02:42:59;11.40;;;4.03;;
40339;SDS011;26044;50.864;20.658;2023-05-29T02:45:27;12.50;;;4.10;;
40339;SDS011;26044;50.864;20.658;2023-05-29T02:47:54;12.43;;;3.25;;
40339;SDS011;26044;50.864;20.658;2023-05-29T02:50:21;14.43;;;3.75;;
40339;SDS011;26044;50.864;20.658;2023-05-29T02:52:50;8.15;;;3.35;;
40339;SDS011;26044;50.864;20.658;2023-05-29T02:55:17;10.38;;;3.92;;
40339;SDS011;26044;50.864;20.658;2023-05-29T02:57:44;16.67;;;4.68;;
40339;SDS011;26044;50.864;20.658;2023-05-29T03:00:14;13.77;;;4.07;;
40339;SDS011;26044;50.864;20.658;2023-05-29T03:02:41;15.57;;;4.05;;
40339;SDS011;26044;50.864;20.658;2023-05-29T03:05:08;12.82;;;4.22;;
40339;SDS011;26044;50.864;20.658;2023-05-29T03:07:35;15.52;;;4.57;;
40339;SDS011;26044;50.864;20.658;2023-05-29T03:10:02;17.45;;;4.35;;
40339;SDS011;26044;50.864;20.658;2023-05-29T03:12:30;19.52;;;5.03;;
40339;SDS011;26044;50.864;20.658;2023-05-29T03:14:57;16.15;;;4.95;;
40339;SDS011;26044;50.864;20.658;2023-05-29T03:17:24;15.82;;;4.55;;
40339;SDS011;26044;50.864;20.658;2023-05-29T03:19:52;18.77;;;5.13;;
40339;SDS011;26044;50.864;20.658;2023-05-29T03:22:19;16.25;;;4.78;;
40339;SDS011;26044;50.864;20.658;2023-05-29T03:24:49;16.10;;;4.38;;
40339;SDS011;26044;50.864;20.658;2023-05-29T03:27:16;17.23;;;5.40;;
40339;SDS011;26044;50.864;20.658;2023-05-29T03:29:43;13.15;;;4.53;;
40339;SDS011;26044;50.864;20.658;2023-05-29T03:32:11;14.85;;;4.20;;
40339;SDS011;26044;50.864;20.658;2023-05-29T03:34:39;17.13;;;5.07;;
40339;SDS011;26044;50.864;20.658;2023-05-29T03:37:07;17.45;;;4.80;;
40339;SDS011;26044;50.864;20.658;2023-05-29T03:39:34;11.15;;;4.30;;
40339;SDS011;26044;50.864;20.658;2023-05-29T03:42:01;14.93;;;4.90;;
40339;SDS011;26044;50.864;20.658;2023-05-29T03:44:29;18.30;;;5.43;;
40339;SDS011;26044;50.864;20.658;2023-05-29T03:46:56;22.30;;;5.40;;
40339;SDS011;26044;50.864;20.658;2023-05-29T03:49:26;19.88;;;6.53;;
40339;SDS011;26044;50.864;20.658;2023-05-29T03:51:53;21.85;;;6.75;;
40339;SDS011;26044;50.864;20.658;2023-05-29T03:54:21;21.10;;;7.18;;
40339;SDS011;26044;50.864;20.658;2023-05-29T03:56:48;25.80;;;7.70;;
40339;SDS011;26044;50.864;20.658;2023-05-29T03:59:15;24.30;;;7.45;;
40339;SDS011;26044;50.864;20.658;2023-05-29T04:01:43;19.15;;;7.35;;
40339;SDS011;26044;50.864;20.658;2023-05-29T04:04:10;27.63;;;8.30;;
40339;SDS011;26044;50.864;20.658;2023-05-29T04:06:37;26.77;;;8.35;;
40339;SDS011;26044;50.864;20.658;2023-05-29T04:09:05;26.05;;;8.75;;
40339;SDS011;26044;50.864;20.658;2023-05-29T04:11:35;24.33;;;8.20;;
40339;SDS011;26044;50.864;20.658;2023-05-29T04:14:02;25.92;;;9.05;;
40339;SDS011;26044;50.864;20.658;2023-05-29T04:16:29;23.05;;;7.70;;
40339;SDS011;26044;50.864;20.658;2023-05-29T04:18:56;22.35;;;8.23;;
40339;SDS011;26044;50.864;20.658;2023-05-29T04:21:23;24.25;;;8.57;;
40339;SDS011;26044;50.864;20.658;2023-05-29T04:23:52;22.85;;;7.80;;
40339;SDS011;26044;50.864;20.658;2023-05-29T04:26:20;23.20;;;7.22;;
40339;SDS011;26044;50.864;20.658;2023-05-29T04:28:52;19.52;;;7.15;;
40339;SDS011;26044;50.864;20.658;2023-05-29T04:31:24;25.20;;;7.78;;
40339;SDS011;26044;50.864;20.658;2023-05-29T04:33:54;21.90;;;7.47;;
40339;SDS011;26044;50.864;20.658;2023-05-29T04:36:25;20.25;;;6.57;;
40339;SDS011;26044;50.864;20.658;2023-05-29T04:38:54;27.63;;;6.75;;
40339;SDS011;26044;50.864;20.658;2023-05-29T04:41:21;22.52;;;7.07;;
40339;SDS011;26044;50.864;20.658;2023-05-29T04:43:50;22.60;;;7.47;;
40339;SDS011;26044;50.864;20.658;2023-05-29T04:46:17;16.70;;;4.78;;
40339;SDS011;26044;50.864;20.658;2023-05-29T04:48:45;17.85;;;5.47;;
40339;SDS011;26044;50.864;20.658;2023-05-29T04:51:12;17.73;;;5.75;;
40339;SDS011;26044;50.864;20.658;2023-05-29T04:53:39;18.52;;;5.43;;
40339;SDS011;26044;50.864;20.658;2023-05-29T04:56:07;20.20;;;5.90;;
40339;SDS011;26044;50.864;20.658;2023-05-29T04:58:37;19.05;;;5.65;;
40339;SDS011;26044;50.864;20.658;2023-05-29T05:01:04;16.80;;;5.15;;
40339;SDS011;26044;50.864;20.658;2023-05-29T05:03:31;15.50;;;5.28;;
40339;SDS011;26044;50.864;20.658;2023-05-29T05:06:00;18.42;;;4.55;;
40339;SDS011;26044;50.864;20.658;2023-05-29T05:08:31;15.35;;;4.93;;
40339;SDS011;26044;50.864;20.658;2023-05-29T05:10:59;17.92;;;5.18;;
40339;SDS011;26044;50.864;20.658;2023-05-29T05:13:27;16.08;;;4.82;;
40339;SDS011;26044;50.864;20.658;2023-05-29T05:15:54;18.45;;;4.82;;
40339;SDS011;26044;50.864;20.658;2023-05-29T05:18:21;17.67;;;4.55;;
40339;SDS011;26044;50.864;20.658;2023-05-29T05:20:49;22.02;;;4.85;;
40339;SDS011;26044;50.864;20.658;2023-05-29T05:23:17;16.35;;;4.88;;
40339;SDS011;26044;50.864;20.658;2023-05-29T05:25:44;21.10;;;6.57;;
40339;SDS011;26044;50.864;20.658;2023-05-29T05:28:11;19.98;;;5.22;;
40339;SDS011;26044;50.864;20.658;2023-05-29T05:30:39;16.27;;;4.38;;
40339;SDS011;26044;50.864;20.658;2023-05-29T05:33:06;11.93;;;3.45;;
40339;SDS011;26044;50.864;20.658;2023-05-29T05:35:34;13.85;;;4.13;;
40339;SDS011;26044;50.864;20.658;2023-05-29T05:38:00;23.10;;;4.00;;
40339;SDS011;26044;50.864;20.658;2023-05-29T05:40:27;12.50;;;3.33;;
40339;SDS011;26044;50.864;20.658;2023-05-29T05:43:01;13.57;;;4.43;;
40339;SDS011;26044;50.864;20.658;2023-05-29T05:45:30;17.80;;;3.67;;
40339;SDS011;26044;50.864;20.658;2023-05-29T05:47:56;14.90;;;3.80;;
40339;SDS011;26044;50.864;20.658;2023-05-29T05:50:27;15.88;;;3.90;;
40339;SDS011;26044;50.864;20.658;2023-05-29T05:52:54;13.93;;;3.55;;
40339;SDS011;26044;50.864;20.658;2023-05-29T05:55:25;12.38;;;3.38;;
40339;SDS011;26044;50.864;20.658;2023-05-29T05:57:54;9.80;;;3.17;;
40339;SDS011;26044;50.864;20.658;2023-05-29T06:00:23;10.13;;;3.45;;
40339;SDS011;26044;50.864;20.658;2023-05-29T06:02:50;15.75;;;3.20;;
40339;SDS011;26044;50.864;20.658;2023-05-29T06:05:18;13.88;;;2.88;;
40339;SDS011;26044;50.864;20.658;2023-05-29T06:07:45;13.55;;;3.55;;
40339;SDS011;26044;50.864;20.658;2023-05-29T06:10:12;14.45;;;3.50;;
40339;SDS011;26044;50.864;20.658;2023-05-29T06:12:39;10.27;;;3.08;;
40339;SDS011;26044;50.864;20.658;2023-05-29T06:15:07;14.35;;;3.78;;
40339;SDS011;26044;50.864;20.658;2023-05-29T06:17:37;12.00;;;3.40;;
40339;SDS011;26044;50.864;20.658;2023-05-29T06:20:05;12.35;;;3.33;;
40339;SDS011;26044;50.864;20.658;2023-05-29T06:22:40;8.77;;;2.80;;
40339;SDS011;26044;50.864;20.658;2023-05-29T06:25:06;10.27;;;2.42;;
40339;SDS011;26044;50.864;20.658;2023-05-29T06:27:35;11.75;;;2.90;;
40339;SDS011;26044;50.864;20.658;2023-05-29T06:30:03;13.25;;;3.00;;
40339;SDS011;26044;50.864;20.658;2023-05-29T06:32:32;13.15;;;2.95;;
40339;SDS011;26044;50.864;20.658;2023-05-29T06:34:59;8.20;;;2.72;;
40339;SDS011;26044;50.864;20.658;2023-05-29T06:37:26;11.15;;;2.30;;
40339;SDS011;26044;50.864;20.658;2023-05-29T06:39:53;10.30;;;2.47;;
40339;SDS011;26044;50.864;20.658;2023-05-29T06:42:20;4.65;;;1.85;;
40339;SDS011;26044;50.864;20.658;2023-05-29T06:44:47;6.38;;;1.95;;
40339;SDS011;26044;50.864;20.658;2023-05-29T06:47:14;4.05;;;1.67;;
40339;SDS011;26044;50.864;20.658;2023-05-29T06:49:41;5.78;;;1.90;;
40339;SDS011;26044;50.864;20.658;2023-05-29T06:52:08;7.85;;;2.50;;
40339;SDS011;26044;50.864;20.658;2023-05-29T06:54:35;10.10;;;1.92;;
40339;SDS011;26044;50.864;20.658;2023-05-29T06:57:02;10.65;;;2.80;;
40339;SDS011;26044;50.864;20.658;2023-05-29T06:59:36;13.75;;;2.58;;
40339;SDS011;26044;50.864;20.658;2023-05-29T07:02:04;13.07;;;2.78;;
40339;SDS011;26044;50.864;20.658;2023-05-29T07:04:31;8.50;;;2.45;;
40339;SDS011;26044;50.864;20.658;2023-05-29T07:06:58;8.25;;;2.33;;
40339;SDS011;26044;50.864;20.658;2023-05-29T07:09:25;8.93;;;2.45;;
40339;SDS011;26044;50.864;20.658;2023-05-29T07:12:05;16.33;;;2.67;;
40339;SDS011;26044;50.864;20.658;2023-05-29T07:14:33;5.10;;;2.33;;
40339;SDS011;26044;50.864;20.658;2023-05-29T07:17:01;8.40;;;2.50;;
40339;SDS011;26044;50.864;20.658;2023-05-29T07:19:30;10.95;;;2.78;;
40339;SDS011;26044;50.864;20.658;2023-05-29T07:21:59;10.15;;;2.17;;
40339;SDS011;26044;50.864;20.658;2023-05-29T07:24:27;7.88;;;2.50;;
40339;SDS011;26044;50.864;20.658;2023-05-29T07:26:54;6.35;;;2.72;;
40339;SDS011;26044;50.864;20.658;2023-05-29T07:33:23;9.70;;;2.53;;
40339;SDS011;26044;50.864;20.658;2023-05-29T07:35:50;14.63;;;2.70;;
40339;SDS011;26044;50.864;20.658;2023-05-29T07:38:17;9.27;;;2.67;;
40339;SDS011;26044;50.864;20.658;2023-05-29T07:40:45;8.05;;;2.72;;
40339;SDS011;26044;50.864;20.658;2023-05-29T07:45:43;5.45;;;2.15;;
40339;SDS011;26044;50.864;20.658;2023-05-29T07:48:10;7.40;;;2.63;;
40339;SDS011;26044;50.864;20.658;2023-05-29T07:50:37;6.85;;;2.13;;
40339;SDS011;26044;50.864;20.658;2023-05-29T07:53:10;9.65;;;2.58;;
40339;SDS011;26044;50.864;20.658;2023-05-29T07:55:37;5.60;;;2.47;;
40339;SDS011;26044;50.864;20.658;2023-05-29T07:58:07;12.98;;;2.50;;
40339;SDS011;26044;50.864;20.658;2023-05-29T08:00:40;8.55;;;2.03;;
40339;SDS011;26044;50.864;20.658;2023-05-29T08:05:57;7.53;;;2.25;;
40339;SDS011;26044;50.864;20.658;2023-05-29T08:08:26;8.70;;;2.65;;
40339;SDS011;26044;50.864;20.658;2023-05-29T08:10:53;8.55;;;2.33;;
40339;SDS011;26044;50.864;20.658;2023-05-29T08:13:21;8.23;;;2.25;;
40339;SDS011;26044;50.864;20.658;2023-05-29T08:15:49;6.50;;;2.35;;
40339;SDS011;26044;50.864;20.658;2023-05-29T08:18:18;8.32;;;2.35;;
40339;SDS011;26044;50.864;20.658;2023-05-29T08:20:47;7.50;;;2.75;;
40339;SDS011;26044;50.864;20.658;2023-05-29T08:23:14;7.85;;;2.55;;
40339;SDS011;26044;50.864;20.658;2023-05-29T08:25:51;9.20;;;2.70;;
40339;SDS011;26044;50.864;20.658;2023-05-29T08:28:19;5.78;;;2.05;;
40339;SDS011;26044;50.864;20.658;2023-05-29T08:30:53;9.63;;;2.42;;
40339;SDS011;26044;50.864;20.658;2023-05-29T08:33:28;9.77;;;2.72;;
40339;SDS011;26044;50.864;20.658;2023-05-29T08:35:59;8.75;;;2.78;;
40339;SDS011;26044;50.864;20.658;2023-05-29T08:38:32;9.50;;;2.30;;
40339;SDS011;26044;50.864;20.658;2023-05-29T08:42:11;7.55;;;2.38;;
40339;SDS011;26044;50.864;20.658;2023-05-29T08:52:39;10.30;;;2.17;;
40339;SDS011;26044;50.864;20.658;2023-05-29T08:55:51;11.20;;;2.63;;
40339;SDS011;26044;50.864;20.658;2023-05-29T08:58:19;8.90;;;2.47;;
40339;SDS011;26044;50.864;20.658;2023-05-29T09:02:05;5.72;;;2.25;;
40339;SDS011;26044;50.864;20.658;2023-05-29T09:17:41;5.18;;;2.50;;
40339;SDS011;26044;50.864;20.658;2023-05-29T09:21:06;7.80;;;2.65;;
40339;SDS011;26044;50.864;20.658;2023-05-29T09:33:19;14.02;;;2.85;;
40339;SDS011;26044;50.864;20.658;2023-05-29T09:35:48;7.93;;;2.85;;
40339;SDS011;26044;50.864;20.658;2023-05-29T09:38:18;7.00;;;2.35;;
40339;SDS011;26044;50.864;20.658;2023-05-29T09:41:07;8.50;;;2.63;;
40339;SDS011;26044;50.864;20.658;2023-05-29T09:43:34;8.90;;;2.63;;
40339;SDS011;26044;50.864;20.658;2023-05-29T09:57:50;8.70;;;2.83;;
40339;SDS011;26044;50.864;20.658;2023-05-29T10:00:23;6.95;;;2.80;;
40339;SDS011;26044;50.864;20.658;2023-05-29T10:02:56;10.83;;;3.37;;
40339;SDS011;26044;50.864;20.658;2023-05-29T10:05:46;6.13;;;2.40;;
40339;SDS011;26044;50.864;20.658;2023-05-29T10:08:18;8.43;;;2.75;;
40339;SDS011;26044;50.864;20.658;2023-05-29T10:10:51;7.35;;;2.33;;
40339;SDS011;26044;50.864;20.658;2023-05-29T10:16:49;6.65;;;2.38;;
40339;SDS011;26044;50.864;20.658;2023-05-29T10:19:21;7.78;;;2.58;;
40339;SDS011;26044;50.864;20.658;2023-05-29T10:21:53;10.98;;;2.80;;
40339;SDS011;26044;50.864;20.658;2023-05-29T10:24:24;7.47;;;2.90;;
40339;SDS011;26044;50.864;20.658;2023-05-29T10:26:56;9.98;;;2.75;;
40339;SDS011;26044;50.864;20.658;2023-05-29T10:29:39;7.38;;;2.47;;
40339;SDS011;26044;50.864;20.658;2023-05-29T10:35:17;9.52;;;3.25;;
40339;SDS011;26044;50.864;20.658;2023-05-29T10:38:00;7.35;;;2.92;;
40339;SDS011;26044;50.864;20.658;2023-05-29T10:40:36;9.50;;;2.78;;
40339;SDS011;26044;50.864;20.658;2023-05-29T10:43:03;8.73;;;2.70;;
40339;SDS011;26044;50.864;20.658;2023-05-29T10:50:37;8.85;;;2.67;;
40339;SDS011;26044;50.864;20.658;2023-05-29T10:53:07;10.27;;;3.03;;
40339;SDS011;26044;50.864;20.658;2023-05-29T10:55:39;10.80;;;2.88;;
40339;SDS011;26044;50.864;20.658;2023-05-29T10:58:12;9.90;;;2.80;;
40339;SDS011;26044;50.864;20.658;2023-05-29T11:00:41;10.95;;;2.85;;
40339;SDS011;26044;50.864;20.658;2023-05-29T11:03:09;7.22;;;2.88;;
40339;SDS011;26044;50.864;20.658;2023-05-29T11:05:59;14.02;;;3.88;;
40339;SDS011;26044;50.864;20.658;2023-05-29T11:11:29;7.32;;;3.03;;
40339;SDS011;26044;50.864;20.658;2023-05-29T11:14:03;9.73;;;3.17;;
40339;SDS011;26044;50.864;20.658;2023-05-29T11:19:03;7.90;;;2.95;;
40339;SDS011;26044;50.864;20.658;2023-05-29T11:24:15;8.35;;;2.97;;
40339;SDS011;26044;50.864;20.658;2023-05-29T11:26:47;8.70;;;3.00;;
40339;SDS011;26044;50.864;20.658;2023-05-29T11:29:14;9.57;;;2.83;;
40339;SDS011;26044;50.864;20.658;2023-05-29T11:31:45;6.03;;;2.67;;
40339;SDS011;26044;50.864;20.658;2023-05-29T11:34:14;13.75;;;3.08;;
40339;SDS011;26044;50.864;20.658;2023-05-29T11:36:41;10.15;;;3.08;;
40339;SDS011;26044;50.864;20.658;2023-05-29T11:39:09;10.23;;;3.00;;
40339;SDS011;26044;50.864;20.658;2023-05-29T11:41:36;7.10;;;3.00;;
40339;SDS011;26044;50.864;20.658;2023-05-29T11:44:04;11.65;;;2.78;;
40339;SDS011;26044;50.864;20.658;2023-05-29T11:46:35;12.20;;;2.75;;
40339;SDS011;26044;50.864;20.658;2023-05-29T11:49:02;6.15;;;2.92;;
40339;SDS011;26044;50.864;20.658;2023-05-29T11:51:31;11.50;;;3.50;;
40339;SDS011;26044;50.864;20.658;2023-05-29T11:53:58;9.88;;;3.03;;
40339;SDS011;26044;50.864;20.658;2023-05-29T11:56:26;9.30;;;3.08;;
40339;SDS011;26044;50.864;20.658;2023-05-29T11:58:55;13.70;;;3.20;;
40339;SDS011;26044;50.864;20.658;2023-05-29T12:01:26;14.25;;;3.33;;
40339;SDS011;26044;50.864;20.658;2023-05-29T12:03:54;13.02;;;3.60;;
40339;SDS011;26044;50.864;20.658;2023-05-29T12:06:33;8.32;;;4.05;;
40339;SDS011;26044;50.864;20.658;2023-05-29T12:09:03;8.20;;;2.92;;
40339;SDS011;26044;50.864;20.658;2023-05-29T12:11:31;10.95;;;3.03;;
40339;SDS011;26044;50.864;20.658;2023-05-29T12:14:00;18.58;;;3.67;;
40339;SDS011;26044;50.864;20.658;2023-05-29T12:16:28;8.15;;;2.72;;
40339;SDS011;26044;50.864;20.658;2023-05-29T12:18:59;13.75;;;3.53;;
40339;SDS011;26044;50.864;20.658;2023-05-29T12:21:26;11.35;;;3.10;;
40339;SDS011;26044;50.864;20.658;2023-05-29T12:23:54;9.88;;;3.08;;
40339;SDS011;26044;50.864;20.658;2023-05-29T12:26:35;10.32;;;3.20;;
40339;SDS011;26044;50.864;20.658;2023-05-29T12:29:04;8.43;;;3.40;;
40339;SDS011;26044;50.864;20.658;2023-05-29T12:31:33;10.55;;;2.85;;
40339;SDS011;26044;50.864;20.658;2023-05-29T12:34:01;7.60;;;2.75;;
40339;SDS011;26044;50.864;20.658;2023-05-29T12:36:36;7.90;;;3.38;;
40339;SDS011;26044;50.864;20.658;2023-05-29T12:39:06;10.77;;;3.45;;
40339;SDS011;26044;50.864;20.658;2023-05-29T12:41:37;13.65;;;3.25;;
40339;SDS011;26044;50.864;20.658;2023-05-29T12:44:05;9.77;;;2.90;;
40339;SDS011;26044;50.864;20.658;2023-05-29T12:46:37;11.32;;;2.60;;
40339;SDS011;26044;50.864;20.658;2023-05-29T12:49:12;10.32;;;3.20;;
40339;SDS011;26044;50.864;20.658;2023-05-29T12:51:43;7.18;;;2.67;;
40339;SDS011;26044;50.864;20.658;2023-05-29T12:54:11;15.15;;;3.40;;
40339;SDS011;26044;50.864;20.658;2023-05-29T12:56:39;10.45;;;3.60;;
40339;SDS011;26044;50.864;20.658;2023-05-29T12:59:07;9.43;;;3.63;;
40339;SDS011;26044;50.864;20.658;2023-05-29T13:01:35;8.23;;;3.10;;
40339;SDS011;26044;50.864;20.658;2023-05-29T13:04:03;7.93;;;3.20;;
40339;SDS011;26044;50.864;20.658;2023-05-29T13:06:34;14.93;;;3.22;;
40339;SDS011;26044;50.864;20.658;2023-05-29T13:09:01;11.95;;;2.80;;
40339;SDS011;26044;50.864;20.658;2023-05-29T13:11:29;9.75;;;3.13;;
40339;SDS011;26044;50.864;20.658;2023-05-29T13:13:56;10.27;;;2.92;;
40339;SDS011;26044;50.864;20.658;2023-05-29T13:16:23;9.95;;;2.88;;
40339;SDS011;26044;50.864;20.658;2023-05-29T13:18:50;10.07;;;2.90;;
40339;SDS011;26044;50.864;20.658;2023-05-29T13:21:16;10.35;;;3.08;;
40339;SDS011;26044;50.864;20.658;2023-05-29T13:23:44;7.65;;;3.13;;
40339;SDS011;26044;50.864;20.658;2023-05-29T13:26:12;6.97;;;3.00;;
40339;SDS011;26044;50.864;20.658;2023-05-29T13:28:39;10.52;;;3.00;;
40339;SDS011;26044;50.864;20.658;2023-05-29T13:31:06;8.07;;;3.17;;
40339;SDS011;26044;50.864;20.658;2023-05-29T13:33:33;8.80;;;2.72;;
40339;SDS011;26044;50.864;20.658;2023-05-29T13:36:00;5.25;;;2.65;;
40339;SDS011;26044;50.864;20.658;2023-05-29T13:38:27;10.60;;;2.88;;
40339;SDS011;26044;50.864;20.658;2023-05-29T13:40:54;10.55;;;3.00;;
40339;SDS011;26044;50.864;20.658;2023-05-29T13:43:21;9.85;;;3.08;;
40339;SDS011;26044;50.864;20.658;2023-05-29T13:46:01;8.30;;;3.17;;
40339;SDS011;26044;50.864;20.658;2023-05-29T13:48:29;7.15;;;3.05;;
40339;SDS011;26044;50.864;20.658;2023-05-29T13:50:56;8.55;;;3.08;;
40339;SDS011;26044;50.864;20.658;2023-05-29T13:53:23;18.90;;;3.63;;
40339;SDS011;26044;50.864;20.658;2023-05-29T13:55:49;10.43;;;2.88;;
40339;SDS011;26044;50.864;20.658;2023-05-29T13:58:16;10.18;;;2.83;;
40339;SDS011;26044;50.864;20.658;2023-05-29T14:00:43;10.73;;;3.10;;
40339;SDS011;26044;50.864;20.658;2023-05-29T14:03:12;4.10;;;2.53;;
40339;SDS011;26044;50.864;20.658;2023-05-29T14:05:39;6.03;;;2.50;;
40339;SDS011;26044;50.864;20.658;2023-05-29T14:08:06;6.70;;;2.75;;
40339;SDS011;26044;50.864;20.658;2023-05-29T14:10:32;9.65;;;3.63;;
40339;SDS011;26044;50.864;20.658;2023-05-29T14:13:00;16.23;;;3.30;;
40339;SDS011;26044;50.864;20.658;2023-05-29T14:15:27;11.32;;;3.63;;
40339;SDS011;26044;50.864;20.658;2023-05-29T14:17:54;8.32;;;3.20;;
40339;SDS011;26044;50.864;20.658;2023-05-29T14:20:22;8.40;;;2.90;;
40339;SDS011;26044;50.864;20.658;2023-05-29T14:22:50;7.75;;;3.10;;
40339;SDS011;26044;50.864;20.658;2023-05-29T14:25:19;13.73;;;2.97;;
40339;SDS011;26044;50.864;20.658;2023-05-29T14:27:45;6.63;;;2.25;;
40339;SDS011;26044;50.864;20.658;2023-05-29T14:30:12;8.70;;;2.67;;
40339;SDS011;26044;50.864;20.658;2023-05-29T14:32:39;6.78;;;2.40;;
40339;SDS011;26044;50.864;20.658;2023-05-29T14:35:08;7.30;;;2.83;;
40339;SDS011;26044;50.864;20.658;2023-05-29T14:37:35;9.02;;;2.85;;
40339;SDS011;26044;50.864;20.658;2023-05-29T14:40:02;10.35;;;3.10;;
40339;SDS011;26044;50.864;20.658;2023-05-29T14:42:32;8.07;;;2.67;;
40339;SDS011;26044;50.864;20.658;2023-05-29T14:45:00;5.90;;;2.60;;
40339;SDS011;26044;50.864;20.658;2023-05-29T14:47:26;7.30;;;2.47;;
40339;SDS011;26044;50.864;20.658;2023-05-29T14:49:53;6.30;;;2.30;;
40339;SDS011;26044;50.864;20.658;2023-05-29T14:52:20;7.35;;;2.10;;
40339;SDS011;26044;50.864;20.658;2023-05-29T14:54:47;12.30;;;2.83;;
40339;SDS011;26044;50.864;20.658;2023-05-29T14:57:14;4.63;;;2.22;;
40339;SDS011;26044;50.864;20.658;2023-05-29T14:59:41;6.25;;;2.75;;
40339;SDS011;26044;50.864;20.658;2023-05-29T15:02:08;5.47;;;2.10;;
40339;SDS011;26044;50.864;20.658;2023-05-29T15:04:35;9.15;;;2.38;;
40339;SDS011;26044;50.864;20.658;2023-05-29T15:07:02;6.72;;;2.00;;
40339;SDS011;26044;50.864;20.658;2023-05-29T15:09:32;7.47;;;3.30;;
40339;SDS011;26044;50.864;20.658;2023-05-29T15:11:59;7.30;;;2.35;;
40339;SDS011;26044;50.864;20.658;2023-05-29T15:14:27;6.80;;;2.80;;
40339;SDS011;26044;50.864;20.658;2023-05-29T15:16:54;4.55;;;2.13;;
40339;SDS011;26044;50.864;20.658;2023-05-29T15:19:22;6.80;;;2.40;;
40339;SDS011;26044;50.864;20.658;2023-05-29T15:21:51;5.22;;;2.22;;
40339;SDS011;26044;50.864;20.658;2023-05-29T15:24:20;8.70;;;2.40;;
40339;SDS011;26044;50.864;20.658;2023-05-29T15:26:46;6.18;;;2.25;;
40339;SDS011;26044;50.864;20.658;2023-05-29T15:29:14;9.65;;;2.67;;
40339;SDS011;26044;50.864;20.658;2023-05-29T15:31:42;7.50;;;2.47;;
40339;SDS011;26044;50.864;20.658;2023-05-29T15:34:09;5.72;;;2.00;;
40339;SDS011;26044;50.864;20.658;2023-05-29T15:36:36;7.43;;;2.63;;
40339;SDS011;26044;50.864;20.658;2023-05-29T15:39:03;7.60;;;2.28;;
40339;SDS011;26044;50.864;20.658;2023-05-29T15:41:33;8.50;;;2.10;;
40339;SDS011;26044;50.864;20.658;2023-05-29T15:44:03;4.78;;;2.17;;
40339;SDS011;26044;50.864;20.658;2023-05-29T15:46:30;6.68;;;2.08;;
40339;SDS011;26044;50.864;20.658;2023-05-29T15:49:00;9.90;;;2.50;;
40339;SDS011;26044;50.864;20.658;2023-05-29T15:51:27;6.40;;;2.58;;
40339;SDS011;26044;50.864;20.658;2023-05-29T15:53:54;10.38;;;2.63;;
40339;SDS011;26044;50.864;20.658;2023-05-29T15:56:24;4.55;;;2.03;;
40339;SDS011;26044;50.864;20.658;2023-05-29T15:58:54;8.30;;;2.50;;
40339;SDS011;26044;50.864;20.658;2023-05-29T16:01:22;10.57;;;2.92;;